Terminal Aerodrome Forecast
Issued by NWS

Home | Current Version | Previous Version | Text Only | Print | Product List | Glossary On
Versions: 1 2 3 4 5 6 7 8 9 10 11 12 13 14 15 16 17 18 19
346
FTUS43 KDVN 161740
TAFBRL
TAF
KBRL 161740Z 1618/1718 17010KT P6SM VCSH BKN017 OVC026
     FM162200 18010KT P6SM VCTS BKN018CB BKN035
      TEMPO 1623/1701 2SM TSRA BR BKN018CB
     FM170400 19010KT 3SM -RA BR VCTS BKN020CB BKN060
     FM171000 23008KT 6SM -RA BR OVC030
     FM171400 26012G18KT 6SM BR BKN030=

USA.gov is the U.S. government's official web portal to all federal, state and local government web resources and services.